Flight Track Log - Related Links

Times and Time Zones

All times are in EDT time to prevent confusion due to time zone crossing. See the PDT4314 flight status page for this flight to view local times or setup timezone preferences in your user account.


Time Position Orientation Groundspeed Altitude Reporting Facility
EDT Latitude Longitude Course Direction KTS MPH feet Rate Location/Type
Sun 05:40:53 PM 39.9000 -75.2333 303° West 115 132 500  Level Philadelphia TRACON
Sun 05:41:41 PM 39.9000 -75.2667 270° West 125 144 1,700 1,278 Climbing Philadelphia TRACON
Sun 05:42:41 PM 39.9167 -75.3167 294° West 138 159 2,800 1,100 Climbing Philadelphia TRACON
Sun 05:43:41 PM 39.9333 -75.3667 294° West 141 162 3,900 1,095 Climbing Philadelphia TRACON
Sun 05:44:47 PM 39.9500 -75.4167 294° West 142 163 5,100 1,000 Climbing Philadelphia TRACON
Sun 05:45:00 PM 40.2187 -75.3471 310° West  Level Estimated
Sun 05:45:41 PM 39.9667 -75.4667 294° West 151 174 5,900  Level Philadelphia TRACON
Sun 05:46:00 PM 40.2579 -75.4249 303° West  Level FlightAware Approximate
Sun 05:46:41 PM 39.9833 -75.5000 303° West 142 163 7,200  Level Philadelphia TRACON
Sun 05:47:41 PM 40.0000 -75.5500 294° West 149 171 8,000 750 Climbing Philadelphia TRACON
Sun 05:48:41 PM 40.0500 -75.5500 360° North 178 205 8,700 500 Climbing Philadelphia TRACON
Sun 05:49:41 PM 40.1000 -75.5500 360° North 193 222 9,000 263 Climbing Philadelphia TRACON
Sun 05:50:58 PM 40.1644 -75.5569 355° North 203 234 9,300 526 Climbing New York Center
Sun 05:51:58 PM 40.2181 -75.5686 351° North 197 227 10,200 800 Climbing New York Center
Sun 05:52:58 PM 40.2608 -75.5961 334° Northwest 183 211 10,900 700 Climbing New York Center
Sun 05:53:58 PM 40.3017 -75.6181 338° Northwest 177 204 11,600 700 Climbing New York Center
Sun 05:54:58 PM 40.3486 -75.6403 340° North 172 198 12,300 700 Climbing New York Center
Sun 05:55:58 PM 40.3911 -75.6733 329° Northwest 167 192 13,000 700 Climbing New York Center
Sun 05:56:58 PM 40.4333 -75.7064 329° Northwest 167 192 13,700 500 Climbing New York Center
Sun 05:57:58 PM 40.4803 -75.7317 338° Northwest 173 199 14,000 150 Climbing New York Center
Sun 05:58:58 PM 40.5228 -75.7619 332° Northwest 189 217 14,000  Level New York Center
Sun 05:59:58 PM 40.5756 -75.7931 336° Northwest 200 230 14,000  Level New York Center
Sun 06:00:58 PM 40.6344 -75.8303 334° Northwest 212 244 14,000  Level New York Center
Sun 06:01:58 PM 40.6914 -75.8617 337° Northwest 212 244 14,000  Level New York Center
Sun 06:02:58 PM 40.7442 -75.8986 332° Northwest 212 244 14,000  Level New York Center
Sun 06:03:58 PM 40.7928 -75.9297 334° Northwest 212 244 14,000  Level New York Center
Sun 06:04:58 PM 40.8475 -75.9639 335° Northwest 218 251 14,000  Level New York Center
Sun 06:05:58 PM 40.9061 -76.0042 333° Northwest 212 244 14,000  Level New York Center
Sun 06:06:58 PM 40.9569 -76.0328 337° Northwest 212 244 14,000  Level New York Center
Sun 06:07:58 PM 41.0158 -76.0675 336° Northwest 212 244 14,000  Level New York Center
Sun 06:08:58 PM 41.0661 -76.1044 331° Northwest 212 244 14,000  Level New York Center
Sun 06:09:58 PM 41.1169 -76.1333 337° Northwest 218 251 14,000  Level New York Center
Sun 06:10:58 PM 41.1694 -76.1706 332° Northwest 213 245 14,000  Level New York Center
Sun 06:11:58 PM 41.2261 -76.2081 334° Northwest 213 245 14,000  Level New York Center
Sun 06:12:58 PM 41.2908 -76.2022 North 218 251 14,000  Level New York Center
Sun 06:13:58 PM 41.3539 -76.1908 North 225 259 14,000  Level New York Center
Sun 06:14:58 PM 41.4119 -76.1956 357° North 225 259 14,000  Level New York Center
Sun 06:15:58 PM 41.4767 -76.1925 North 225 259 14,000  Level New York Center
Sun 06:16:58 PM 41.5444 -76.1703 14° North 231 266 14,000 -400 Level New York Center
Sun 06:17:58 PM 41.6119 -76.1506 12° North 241 277 13,200 -1,150 Descending New York Center
Sun 06:18:58 PM 41.6833 -76.1369 North 246 283 11,700 -1,450 Descending New York Center
Sun 06:19:58 PM 41.7486 -76.1228 North 257 296 10,300 -1,650 Descending New York Center
Sun 06:20:58 PM 41.8164 -76.0975 16° North 257 296 8,400 -650 Descending New York Center
Sun 06:21:58 PM 41.8836 -76.0864 North 231 266 9,000 300 Climbing New York Center
Sun 06:22:58 PM 41.9447 -76.0661 14° North 223 257 9,000  Level New York Center
Sun 06:23:58 PM 41.9975 -76.0536 10° North 202 232 9,000  Level New York Center
Sun 06:24:58 PM 42.0436 -76.0433 North 186 214 9,000  Level New York Center
Sun 06:25:58 PM 42.0969 -76.0167 20° North 180 207 9,000  Level New York Center
Sun 06:26:58 PM 42.1303 -75.9664 48° Northeast 175 201 9,000  Level New York Center
Sun 06:27:58 PM 42.1647 -75.9439 26° Northeast 158 182 9,000  Level New York Center
Sun 06:28:58 PM 42.1847 -75.9622 326° Northwest 113 130 9,000  Level New York Center
Sun 06:29:58 PM 42.2206 -75.9483 16° North 113 130 9,000  Level New York Center
Sun 06:30:58 PM 42.2519 -75.9453 North 113 130 9,000  Level New York Center

Login

Don't have an account? Register now (free) for customized features, flight alerts, and more!